createdAt,value
2023-03-04T00:01:36.018Z,91.84
2023-03-04T00:04:24.040Z,91.42
2023-03-04T00:07:16.836Z,91.08
2023-03-04T00:10:06.598Z,91.18
2023-03-04T00:12:54.989Z,91.23
2023-03-04T00:15:42.931Z,90.92
2023-03-04T00:18:30.803Z,90.84
2023-03-04T00:21:18.771Z,90.93
2023-03-04T00:24:07.482Z,90.71
2023-03-04T00:26:55.045Z,90.45
2023-03-04T00:29:43.199Z,90.41
2023-03-04T00:32:31.415Z,90.35
2023-03-04T00:35:19.777Z,90.16
2023-03-04T00:38:09.111Z,90.06
2023-03-04T00:40:57.876Z,89.95
2023-03-04T00:43:45.689Z,89.79
2023-03-04T00:46:33.905Z,89.91
2023-03-04T00:49:22.697Z,89.94
2023-03-04T00:52:10.667Z,89.89
2023-03-04T00:54:58.834Z,89.96
2023-03-04T00:57:46.951Z,89.78
2023-03-04T01:00:36.500Z,89.98
2023-03-04T01:03:26.978Z,89.98
2023-03-04T01:06:15.043Z,89.99
2023-03-04T01:09:03.476Z,89.79
2023-03-04T01:11:51.666Z,89.59
2023-03-04T01:14:40.135Z,89.43
2023-03-04T01:17:28.422Z,89.43
2023-03-04T01:20:17.620Z,89.24
2023-03-04T01:23:05.674Z,89.14
2023-03-04T01:25:53.991Z,89.39
2023-03-04T01:28:41.985Z,89.31
2023-03-04T01:31:30.477Z,89.28
2023-03-04T01:34:18.480Z,88.99
2023-03-04T01:37:06.705Z,88.92
2023-03-04T01:39:54.924Z,89.05
2023-03-04T01:42:45.345Z,89.07
2023-03-04T01:45:33.775Z,89.05
2023-03-04T01:48:42.454Z,89.25
2023-03-04T01:51:30.558Z,89.13
2023-03-04T01:54:20.216Z,89.14
2023-03-04T01:57:26.497Z,89.12
2023-03-04T02:00:33.930Z,89.39
2023-03-04T02:03:22.825Z,89.90
2023-03-04T02:06:10.611Z,89.77
2023-03-04T02:08:58.825Z,90.21
2023-03-04T02:11:49.506Z,90.10
2023-03-04T02:14:39.170Z,90.36
2023-03-04T02:17:28.821Z,90.58
2023-03-04T02:20:59.940Z,90.86
2023-03-04T02:24:18.271Z,91.19
2023-03-04T02:27:07.485Z,91.53
2023-03-04T02:29:55.923Z,91.46
2023-03-04T02:32:44.150Z,92.12
2023-03-04T02:35:33.074Z,92.08
2023-03-04T02:38:22.066Z,92.55
2023-03-04T02:41:16.613Z,93.32
2023-03-04T02:44:17.163Z,93.41
2023-03-04T02:47:09.635Z,94.07
2023-03-04T02:49:58.040Z,94.55
2023-03-04T02:52:46.186Z,95.11
2023-03-04T02:55:34.289Z,94.67
2023-03-04T02:58:22.399Z,95.28
2023-03-04T03:01:10.615Z,95.40
2023-03-04T03:03:58.877Z,95.78
2023-03-04T03:06:47.742Z,95.58
2023-03-04T03:09:36.935Z,95.65
2023-03-04T03:12:25.211Z,96.00
2023-03-04T03:15:14.079Z,95.94
2023-03-04T03:18:02.423Z,95.73
2023-03-04T03:20:50.659Z,95.81
2023-03-04T03:23:39.143Z,95.46
2023-03-04T03:26:28.020Z,95.77
2023-03-04T03:29:16.253Z,95.80
2023-03-04T03:32:04.272Z,96.02
2023-03-04T03:34:52.426Z,95.99
2023-03-04T03:37:40.661Z,96.17
2023-03-04T03:40:28.711Z,95.91
2023-03-04T03:43:16.580Z,96.12
2023-03-04T03:46:05.209Z,96.31
2023-03-04T03:48:53.607Z,96.19
2023-03-04T03:51:41.889Z,95.87
2023-03-04T03:54:30.386Z,96.05
2023-03-04T03:57:18.188Z,95.92
2023-03-04T04:00:08.815Z,96.15
2023-03-04T04:03:03.204Z,96.38
2023-03-04T04:05:51.481Z,96.06
2023-03-04T04:08:39.748Z,96.96
2023-03-04T04:11:28.193Z,97.30
2023-03-04T04:14:16.621Z,97.21
2023-03-04T04:17:04.951Z,97.34
2023-03-04T04:19:53.165Z,97.34
2023-03-04T04:22:41.181Z,97.58
2023-03-04T04:25:29.790Z,97.77
2023-03-04T04:28:17.629Z,98.33
2023-03-04T04:31:10.040Z,98.70
2023-03-04T04:33:57.896Z,98.87
2023-03-04T04:36:45.987Z,98.55
2023-03-04T04:39:34.414Z,98.50
2023-03-04T04:42:23.461Z,98.33
2023-03-04T04:45:12.047Z,98.81
2023-03-04T04:48:00.352Z,98.93
2023-03-04T04:50:56.267Z,98.71
2023-03-04T04:53:44.974Z,98.87
2023-03-04T04:56:34.483Z,98.82
2023-03-04T04:59:23.466Z,98.55
2023-03-04T05:02:11.768Z,98.33
2023-03-04T05:04:59.740Z,97.87
2023-03-04T05:07:47.886Z,97.74
2023-03-04T05:10:36.152Z,97.29
2023-03-04T05:13:24.275Z,97.06
2023-03-04T05:16:13.662Z,96.66
2023-03-04T05:19:02.092Z,96.25
2023-03-04T05:21:50.032Z,96.00
2023-03-04T05:24:38.064Z,95.42
2023-03-04T05:27:26.215Z,95.24
2023-03-04T05:30:14.623Z,94.83
2023-03-04T05:33:02.870Z,94.44
2023-03-04T05:35:51.686Z,94.03
2023-03-04T05:38:39.836Z,93.95
2023-03-04T05:41:27.973Z,93.55
2023-03-04T05:44:16.418Z,93.31
2023-03-04T05:47:04.212Z,93.03
2023-03-04T05:49:52.312Z,92.65
2023-03-04T05:52:40.467Z,92.41
2023-03-04T05:55:30.177Z,91.94
2023-03-04T05:58:19.909Z,91.54
2023-03-04T06:01:08.026Z,91.28
2023-03-04T06:03:56.679Z,91.16
2023-03-04T06:06:46.756Z,90.79
2023-03-04T06:09:34.821Z,90.50
2023-03-04T06:12:23.386Z,90.21
2023-03-04T06:15:13.211Z,89.62
2023-03-04T06:18:01.287Z,89.43
2023-03-04T06:20:49.585Z,89.01
2023-03-04T06:23:37.955Z,88.73
2023-03-04T06:26:26.112Z,88.42
2023-03-04T06:29:17.269Z,87.82
2023-03-04T06:32:06.121Z,87.40
2023-03-04T06:34:54.185Z,87.25
2023-03-04T06:37:42.926Z,86.00
2023-03-04T06:40:31.014Z,85.66
2023-03-04T06:43:20.290Z,84.89
2023-03-04T06:46:10.061Z,84.19
2023-03-04T06:48:58.361Z,82.51
2023-03-04T06:51:46.438Z,82.37
2023-03-04T06:54:34.438Z,80.48
2023-03-04T06:57:22.454Z,79.62
2023-03-04T07:00:12.076Z,78.28
2023-03-04T07:03:00.370Z,77.54
2023-03-04T07:05:48.398Z,75.96
2023-03-04T07:08:36.788Z,74.40
2023-03-04T07:11:25.527Z,74.60
2023-03-04T07:14:14.132Z,74.79
2023-03-04T07:17:02.253Z,74.26
2023-03-04T07:19:50.436Z,73.49
2023-03-04T07:22:38.950Z,72.95
2023-03-04T07:25:27.575Z,72.48
2023-03-04T07:28:15.487Z,71.81
2023-03-04T07:31:11.716Z,71.14
2023-03-04T07:34:06.859Z,70.55
2023-03-04T07:36:55.371Z,68.13
2023-03-04T07:39:43.415Z,65.36
2023-03-04T07:42:31.468Z,62.03
2023-03-04T07:45:24.766Z,59.81
2023-03-04T07:48:12.696Z,58.57
2023-03-04T07:51:22.656Z,56.88
2023-03-04T07:54:11.354Z,53.81
2023-03-04T07:56:59.326Z,52.02
2023-03-04T07:59:47.394Z,52.03
2023-03-04T08:02:35.427Z,51.67
2023-03-04T08:05:23.615Z,50.11
2023-03-04T08:08:11.990Z,51.05
2023-03-04T08:10:59.861Z,50.85
2023-03-04T08:13:48.390Z,48.45
2023-03-04T08:16:36.746Z,48.95
2023-03-04T08:19:26.008Z,48.97
2023-03-04T08:22:14.645Z,48.98
2023-03-04T08:25:02.795Z,48.51
2023-03-04T08:27:50.619Z,48.63
2023-03-04T08:30:40.975Z,48.36
2023-03-04T08:33:28.783Z,48.37
2023-03-04T08:36:17.404Z,48.80
2023-03-04T08:39:06.506Z,48.26
2023-03-04T08:41:54.180Z,48.04
2023-03-04T08:44:42.447Z,48.58
2023-03-04T08:47:30.764Z,47.80
2023-03-04T08:50:21.324Z,45.81
2023-03-04T08:53:10.558Z,44.85
2023-03-04T08:55:58.871Z,44.50
2023-03-04T08:58:47.300Z,44.36
2023-03-04T09:01:35.588Z,44.66
2023-03-04T09:04:24.679Z,44.91
2023-03-04T09:07:14.309Z,44.97
2023-03-04T09:10:02.269Z,45.55
2023-03-04T09:12:50.710Z,44.09
2023-03-04T09:15:45.053Z,43.29
2023-03-04T09:18:33.474Z,42.76
2023-03-04T09:21:21.793Z,41.66
2023-03-04T09:24:09.601Z,41.41
2023-03-04T09:26:57.786Z,40.62
2023-03-04T09:29:45.989Z,40.52
2023-03-04T09:32:34.183Z,40.46
2023-03-04T09:35:22.337Z,39.74
2023-03-04T09:38:10.564Z,41.06
2023-03-04T09:41:04.858Z,40.89
2023-03-04T09:43:54.720Z,41.49
2023-03-04T09:46:45.532Z,42.00
2023-03-04T09:49:37.176Z,41.75
2023-03-04T09:53:07.765Z,40.83
2023-03-04T09:55:56.254Z,40.79
2023-03-04T09:58:59.328Z,41.06
2023-03-04T10:01:56.721Z,40.74
2023-03-04T10:04:55.505Z,40.40
2023-03-04T10:07:50.223Z,39.64
2023-03-04T10:10:43.971Z,37.02
2023-03-04T10:13:41.597Z,34.45
2023-03-04T10:16:52.881Z,32.87
2023-03-04T10:19:59.200Z,32.35
2023-03-04T10:22:53.559Z,31.80
2023-03-04T10:25:46.855Z,32.09
2023-03-04T10:28:36.096Z,32.47
2023-03-04T10:31:39.315Z,32.63
2023-03-04T10:34:27.789Z,31.30
2023-03-04T10:37:16.023Z,29.11
2023-03-04T10:40:04.823Z,27.21
2023-03-04T10:42:54.452Z,26.79
2023-03-04T10:45:42.584Z,25.91
2023-03-04T10:48:32.609Z,24.40
2023-03-04T10:51:25.276Z,21.51
2023-03-04T10:54:54.022Z,20.57
2023-03-04T10:57:45.051Z,19.38
2023-03-04T11:00:36.923Z,18.42
2023-03-04T11:03:30.039Z,17.50
2023-03-04T11:06:23.509Z,17.33
2023-03-04T11:09:28.988Z,16.44
2023-03-04T11:12:21.921Z,16.42
2023-03-04T11:15:27.688Z,17.79
2023-03-04T11:18:17.208Z,18.40
2023-03-04T11:21:06.836Z,18.56
2023-03-04T11:24:02.907Z,18.70
2023-03-04T11:27:10.905Z,18.61
2023-03-04T11:30:29.896Z,18.68
2023-03-04T11:33:41.853Z,18.99
2023-03-04T11:37:03.836Z,18.11
2023-03-04T11:40:01.433Z,18.18
2023-03-04T11:43:37.807Z,17.97
2023-03-04T11:47:03.347Z,16.85
2023-03-04T11:50:36.819Z,17.05
2023-03-04T11:53:44.756Z,17.55
2023-03-04T11:57:27.452Z,17.77
2023-03-04T12:00:44.015Z,17.68
2023-03-04T12:03:46.316Z,17.88
2023-03-04T12:07:16.396Z,17.70
2023-03-04T12:10:25.282Z,18.44
2023-03-04T12:13:25.366Z,19.70
2023-03-04T12:16:51.844Z,20.53
2023-03-04T12:19:43.815Z,20.90
2023-03-04T12:22:57.148Z,20.99
2023-03-04T12:26:04.285Z,20.80
2023-03-04T12:29:18.317Z,21.49
2023-03-04T12:32:29.716Z,21.77
2023-03-04T12:35:52.776Z,22.71
2023-03-04T12:39:27.852Z,23.89
2023-03-04T12:42:49.637Z,24.81
2023-03-04T12:46:04.919Z,25.83
2023-03-04T12:49:14.703Z,27.19
2023-03-04T12:52:39.558Z,27.59
2023-03-04T12:55:40.288Z,27.94
2023-03-04T12:58:32.947Z,28.14
2023-03-04T13:01:29.985Z,28.74
2023-03-04T13:05:01.237Z,28.53
2023-03-04T13:08:26.072Z,27.36
2023-03-04T13:11:26.360Z,26.90
2023-03-04T13:14:15.269Z,26.51
2023-03-04T13:17:52.139Z,27.26
2023-03-04T13:20:41.402Z,27.85
2023-03-04T13:23:32.123Z,28.18
2023-03-04T13:26:40.577Z,27.80
2023-03-04T13:29:28.585Z,27.37
2023-03-04T13:32:39.010Z,26.54
2023-03-04T13:35:49.165Z,27.22
2023-03-04T13:38:39.016Z,26.86
2023-03-04T13:41:47.116Z,27.00
2023-03-04T13:44:44.640Z,28.19
2023-03-04T13:47:44.061Z,28.40
2023-03-04T13:50:49.631Z,29.49
2023-03-04T13:54:00.011Z,30.22
2023-03-04T13:57:09.733Z,31.04
2023-03-04T13:59:58.356Z,31.87
2023-03-04T14:02:46.523Z,32.66
2023-03-04T14:05:35.855Z,33.20
2023-03-04T14:08:25.954Z,34.88
2023-03-04T14:11:38.942Z,36.09
2023-03-04T14:14:31.461Z,38.03
2023-03-04T14:17:39.173Z,39.77
2023-03-04T14:20:37.489Z,40.54
2023-03-04T14:23:36.067Z,40.76
2023-03-04T14:26:24.514Z,39.85
2023-03-04T14:29:30.838Z,39.03
2023-03-04T14:32:19.546Z,38.48
2023-03-04T14:35:21.459Z,37.16
2023-03-04T14:38:32.326Z,36.95
2023-03-04T14:41:30.317Z,37.09
2023-03-04T14:44:49.121Z,37.02
2023-03-04T14:47:42.048Z,37.44
2023-03-04T14:50:30.461Z,35.99
2023-03-04T14:53:23.070Z,35.08
2023-03-04T14:56:11.139Z,35.32
2023-03-04T14:59:00.252Z,35.96
2023-03-04T15:01:49.812Z,36.36
2023-03-04T15:04:42.055Z,34.60
2023-03-04T15:07:38.633Z,33.71
2023-03-04T15:10:38.551Z,32.77
2023-03-04T15:13:46.298Z,32.62
2023-03-04T15:16:57.075Z,33.62
2023-03-04T15:19:45.453Z,33.56
2023-03-04T15:22:59.195Z,33.42
2023-03-04T15:25:53.096Z,33.16
2023-03-04T15:28:42.340Z,33.57
2023-03-04T15:31:30.482Z,33.53
2023-03-04T15:34:20.748Z,33.34
2023-03-04T15:37:20.492Z,33.66
2023-03-04T15:40:31.412Z,33.75
2023-03-04T15:43:22.235Z,33.97
2023-03-04T15:46:12.542Z,34.34
2023-03-04T15:49:00.610Z,34.48
2023-03-04T15:51:50.539Z,34.72
2023-03-04T15:54:38.928Z,35.16
2023-03-04T15:57:28.164Z,35.05
2023-03-04T16:00:17.081Z,34.82
2023-03-04T16:03:05.491Z,34.86
2023-03-04T16:05:53.657Z,35.47
2023-03-04T16:08:43.217Z,35.62
2023-03-04T16:11:45.613Z,36.08
2023-03-04T16:14:34.860Z,36.05
2023-03-04T16:17:38.138Z,36.43
2023-03-04T16:20:30.306Z,36.38
2023-03-04T16:23:29.830Z,36.94
2023-03-04T16:26:38.322Z,36.55
2023-03-04T16:29:26.766Z,37.00
2023-03-04T16:32:17.688Z,36.79
2023-03-04T16:35:07.045Z,37.09
2023-03-04T16:37:57.021Z,37.15
2023-03-04T16:40:45.280Z,37.39
2023-03-04T16:43:33.292Z,37.71
2023-03-04T16:46:21.513Z,37.93
2023-03-04T16:49:10.188Z,38.12
2023-03-04T16:51:58.585Z,38.17
2023-03-04T16:54:47.299Z,39.03
2023-03-04T16:57:35.553Z,39.07
2023-03-04T17:07:52.546Z,39.75
2023-03-04T17:10:41.418Z,40.19
2023-03-04T17:13:29.503Z,40.28
2023-03-04T17:16:18.376Z,40.72
2023-03-04T17:19:06.993Z,41.00
2023-03-04T17:22:01.089Z,41.44
2023-03-04T17:24:49.256Z,41.73
2023-03-04T17:27:37.670Z,42.27
2023-03-04T17:30:25.771Z,42.47
2023-03-04T17:33:13.693Z,42.89
2023-03-04T17:36:02.036Z,42.94
2023-03-04T17:38:52.183Z,43.33
2023-03-04T17:41:40.260Z,43.15
2023-03-04T17:44:29.108Z,43.31
2023-03-04T17:47:17.448Z,43.61
2023-03-04T17:50:07.663Z,43.54
2023-03-04T17:52:55.729Z,44.08
2023-03-04T17:56:06.939Z,44.36
2023-03-04T17:58:55.877Z,44.62
2023-03-04T18:01:46.142Z,44.32
2023-03-04T18:04:35.650Z,44.23
2023-03-04T18:07:23.773Z,44.96
2023-03-04T18:10:12.159Z,44.93
2023-03-04T18:13:00.607Z,45.25
2023-03-04T18:15:49.533Z,45.40
2023-03-04T18:18:38.593Z,45.28
2023-03-04T18:21:29.881Z,45.52
2023-03-04T18:24:18.562Z,45.49
2023-03-04T18:27:07.471Z,45.56
2023-03-04T18:29:58.861Z,45.64
2023-03-04T18:32:52.258Z,45.46
2023-03-04T18:35:40.819Z,45.37
2023-03-04T18:38:30.233Z,45.52
2023-03-04T18:41:18.639Z,45.70
2023-03-04T18:44:09.936Z,45.56
2023-03-04T18:46:58.452Z,45.50
2023-03-04T18:49:47.660Z,45.42
2023-03-04T18:52:36.347Z,45.05
2023-03-04T18:55:25.127Z,45.00
2023-03-04T18:58:13.757Z,45.39
2023-03-04T19:01:05.376Z,45.63
2023-03-04T19:03:54.628Z,45.22
2023-03-04T19:06:42.969Z,45.79
2023-03-04T19:09:31.437Z,45.50
2023-03-04T19:12:22.609Z,45.97
2023-03-04T19:15:12.445Z,45.69
2023-03-04T19:18:00.820Z,46.21
2023-03-04T19:20:48.849Z,46.33
2023-03-04T19:23:36.957Z,46.39
2023-03-04T19:26:25.056Z,46.57
2023-03-04T19:29:15.322Z,46.95
2023-03-04T19:32:05.399Z,47.52
2023-03-04T19:34:53.928Z,47.38
2023-03-04T19:37:42.080Z,47.57
2023-03-04T19:40:31.359Z,47.82
2023-03-04T19:43:20.106Z,48.05
2023-03-04T19:46:10.304Z,48.05
2023-03-04T19:48:58.632Z,47.75
2023-03-04T19:51:46.857Z,48.09
2023-03-04T19:54:34.911Z,48.23
2023-03-04T19:57:23.094Z,48.33
2023-03-04T20:00:13.055Z,48.33
2023-03-04T20:03:01.940Z,48.53
2023-03-04T20:05:50.356Z,48.86
2023-03-04T20:08:38.645Z,49.10
2023-03-04T20:11:29.288Z,49.11
2023-03-04T20:14:18.026Z,49.04
2023-03-04T20:17:07.311Z,49.47
2023-03-04T20:19:55.361Z,49.36
2023-03-04T20:22:43.386Z,49.27
2023-03-04T20:25:32.225Z,49.86
2023-03-04T20:28:20.540Z,50.20
2023-03-04T20:31:15.981Z,50.32
2023-03-04T20:34:07.193Z,50.67
2023-03-04T20:36:55.816Z,50.79
2023-03-04T20:39:44.273Z,51.08
2023-03-04T20:42:34.131Z,50.79
2023-03-04T20:45:24.800Z,51.15
2023-03-04T20:48:13.213Z,51.18
2023-03-04T20:51:01.807Z,51.43
2023-03-04T20:53:50.831Z,51.53
2023-03-04T20:56:39.766Z,51.77
2023-03-04T20:59:28.311Z,51.86
2023-03-04T21:02:19.908Z,51.89
2023-03-04T21:05:08.416Z,52.15
2023-03-04T21:07:56.821Z,52.05
2023-03-04T21:10:49.443Z,52.12
2023-03-04T21:13:37.459Z,52.41
2023-03-04T21:16:31.689Z,52.39
2023-03-04T21:19:27.657Z,52.35
2023-03-04T21:22:19.387Z,52.13
2023-03-04T21:25:09.053Z,52.35
2023-03-04T21:27:57.257Z,52.68
2023-03-04T21:30:45.421Z,52.53
2023-03-04T21:33:36.614Z,52.34
2023-03-04T21:36:25.081Z,52.29
2023-03-04T21:39:20.270Z,52.22
2023-03-04T21:42:08.538Z,52.30
2023-03-04T21:44:56.595Z,52.15
2023-03-04T21:47:45.236Z,52.10
2023-03-04T21:50:33.434Z,52.14
2023-03-04T21:53:21.871Z,52.00
2023-03-04T21:56:12.614Z,52.21
2023-03-04T21:59:02.332Z,52.03
2023-03-04T22:01:50.657Z,51.95
2023-03-04T22:04:40.787Z,52.30
2023-03-04T22:07:29.204Z,52.07
2023-03-04T22:10:17.981Z,52.46
2023-03-04T22:13:11.232Z,52.34
2023-03-04T22:16:00.510Z,52.28
2023-03-04T22:18:49.205Z,52.43
2023-03-04T22:21:37.532Z,52.66
2023-03-04T22:24:26.533Z,52.51
2023-03-04T22:27:15.016Z,52.86
2023-03-04T22:30:03.435Z,52.69
2023-03-04T22:32:51.534Z,52.84
2023-03-04T22:35:40.716Z,52.83
2023-03-04T22:38:28.972Z,53.28
2023-03-04T22:41:20.055Z,53.11
2023-03-04T22:44:08.326Z,52.96
2023-03-04T22:46:56.379Z,53.69
2023-03-04T22:49:47.608Z,53.38
2023-03-04T22:52:36.076Z,53.31
2023-03-04T22:55:24.318Z,53.54
2023-03-04T22:58:12.423Z,53.52
2023-03-04T23:01:01.224Z,53.64
2023-03-04T23:03:49.744Z,53.71
2023-03-04T23:06:38.256Z,53.91
2023-03-04T23:09:26.659Z,53.61
2023-03-04T23:12:14.607Z,53.95
2023-03-04T23:15:02.654Z,53.78
2023-03-04T23:17:51.152Z,54.12
2023-03-04T23:20:42.452Z,54.10
2023-03-04T23:23:30.293Z,54.35
2023-03-04T23:26:29.520Z,54.59
2023-03-04T23:29:18.076Z,54.33
2023-03-04T23:32:06.642Z,54.46
2023-03-04T23:34:56.425Z,54.76
2023-03-04T23:37:44.743Z,54.95
2023-03-04T23:40:33.190Z,55.30
2023-03-04T23:43:21.536Z,55.71
2023-03-04T23:46:11.799Z,55.83
2023-03-04T23:49:00.253Z,55.99
2023-03-04T23:51:48.382Z,56.19
2023-03-04T23:54:36.662Z,56.64
2023-03-04T23:57:24.987Z,56.95
